sensor_id;sensor_type;location;lat;lon;timestamp;temperature;humidity
74811;DHT22;63340;48.404;-4.506;2022-09-09T00:00:23;18.62;77.46
74811;DHT22;63340;48.404;-4.506;2022-09-09T00:05:57;18.54;77.55
74811;DHT22;63340;48.404;-4.506;2022-09-09T00:11:43;18.45;78.36
74811;DHT22;63340;48.404;-4.506;2022-09-09T00:16:49;18.44;78.15
74811;DHT22;63340;48.404;-4.506;2022-09-09T00:22:14;18.41;77.98
74811;DHT22;63340;48.404;-4.506;2022-09-09T00:24:46;18.38;78.30
74811;DHT22;63340;48.404;-4.506;2022-09-09T00:30:18;18.37;78.32
74811;DHT22;63340;48.404;-4.506;2022-09-09T00:32:59;18.34;78.42
74811;DHT22;63340;48.404;-4.506;2022-09-09T00:35:30;18.37;78.09
74811;DHT22;63340;48.404;-4.506;2022-09-09T00:38:02;18.41;77.68
74811;DHT22;63340;48.404;-4.506;2022-09-09T00:40:36;18.41;77.80
74811;DHT22;63340;48.404;-4.506;2022-09-09T00:43:27;18.51;77.29
74811;DHT22;63340;48.404;-4.506;2022-09-09T00:46:24;18.54;77.36
74811;DHT22;63340;48.404;-4.506;2022-09-09T00:49:14;18.50;77.62
74811;DHT22;63340;48.404;-4.506;2022-09-09T00:54:45;18.51;77.52
74811;DHT22;63340;48.404;-4.506;2022-09-09T01:00:15;18.55;77.13
74811;DHT22;63340;48.404;-4.506;2022-09-09T01:03:13;18.61;77.00
74811;DHT22;63340;48.404;-4.506;2022-09-09T01:10:54;18.64;76.72
74811;DHT22;63340;48.404;-4.506;2022-09-09T01:13:29;18.65;76.66
74811;DHT22;63340;48.404;-4.506;2022-09-09T01:15:57;18.67;76.66
74811;DHT22;63340;48.404;-4.506;2022-09-09T01:18:29;18.62;76.62
74811;DHT22;63340;48.404;-4.506;2022-09-09T01:28:37;18.51;76.46
74811;DHT22;63340;48.404;-4.506;2022-09-09T01:31:06;18.52;76.35
74811;DHT22;63340;48.404;-4.506;2022-09-09T01:33:32;18.54;76.30
74811;DHT22;63340;48.404;-4.506;2022-09-09T01:36:02;18.52;76.24
74811;DHT22;63340;48.404;-4.506;2022-09-09T01:38:32;18.55;76.19
74811;DHT22;63340;48.404;-4.506;2022-09-09T01:41:03;18.52;76.15
74811;DHT22;63340;48.404;-4.506;2022-09-09T01:43:29;18.57;75.89
74811;DHT22;63340;48.404;-4.506;2022-09-09T01:45:58;18.61;75.79
74811;DHT22;63340;48.404;-4.506;2022-09-09T01:48:25;18.59;75.88
74811;DHT22;63340;48.404;-4.506;2022-09-09T01:50:50;18.62;75.95
74811;DHT22;63340;48.404;-4.506;2022-09-09T01:53:18;18.59;76.10
74811;DHT22;63340;48.404;-4.506;2022-09-09T01:58:31;18.58;76.39
74811;DHT22;63340;48.404;-4.506;2022-09-09T02:03:52;18.50;76.79
74811;DHT22;63340;48.404;-4.506;2022-09-09T02:08:56;18.51;76.43
74811;DHT22;63340;48.404;-4.506;2022-09-09T02:11:27;18.55;76.28
74811;DHT22;63340;48.404;-4.506;2022-09-09T02:14:00;18.55;76.19
74811;DHT22;63340;48.404;-4.506;2022-09-09T02:19:21;18.55;75.97
74811;DHT22;63340;48.404;-4.506;2022-09-09T02:21:54;18.54;75.99
74811;DHT22;63340;48.404;-4.506;2022-09-09T02:24:21;18.40;76.43
74811;DHT22;63340;48.404;-4.506;2022-09-09T02:26:53;18.41;76.37
74811;DHT22;63340;48.404;-4.506;2022-09-09T02:29:46;18.40;76.16
74811;DHT22;63340;48.404;-4.506;2022-09-09T02:32:19;18.40;76.28
74811;DHT22;63340;48.404;-4.506;2022-09-09T02:34:53;18.40;76.26
74811;DHT22;63340;48.404;-4.506;2022-09-09T02:37:24;18.47;76.01
74811;DHT22;63340;48.404;-4.506;2022-09-09T02:39:54;18.44;75.91
74811;DHT22;63340;48.404;-4.506;2022-09-09T02:42:20;18.44;75.78
74811;DHT22;63340;48.404;-4.506;2022-09-09T02:44:46;18.41;75.88
74811;DHT22;63340;48.404;-4.506;2022-09-09T02:52:38;18.41;75.93
74811;DHT22;63340;48.404;-4.506;2022-09-09T02:55:18;18.44;75.82
74811;DHT22;63340;48.404;-4.506;2022-09-09T02:57:49;18.44;75.92
74811;DHT22;63340;48.404;-4.506;2022-09-09T03:00:22;18.41;76.01
74811;DHT22;63340;48.404;-4.506;2022-09-09T03:02:49;18.43;76.04
74811;DHT22;63340;48.404;-4.506;2022-09-09T03:05:16;18.44;75.96
74811;DHT22;63340;48.404;-4.506;2022-09-09T03:07:42;18.40;76.26
74811;DHT22;63340;48.404;-4.506;2022-09-09T03:10:08;18.31;76.42
74811;DHT22;63340;48.404;-4.506;2022-09-09T03:12:33;18.41;76.07
74811;DHT22;63340;48.404;-4.506;2022-09-09T03:14:59;18.44;75.87
74811;DHT22;63340;48.404;-4.506;2022-09-09T03:17:24;18.44;75.70
74811;DHT22;63340;48.404;-4.506;2022-09-09T03:19:50;18.43;75.59
74811;DHT22;63340;48.404;-4.506;2022-09-09T03:22:18;18.44;75.61
74811;DHT22;63340;48.404;-4.506;2022-09-09T03:24:43;18.47;75.23
74811;DHT22;63340;48.404;-4.506;2022-09-09T03:27:09;18.44;75.03
74811;DHT22;63340;48.404;-4.506;2022-09-09T03:29:35;18.38;74.97
74811;DHT22;63340;48.404;-4.506;2022-09-09T03:32:00;18.43;74.93
74811;DHT22;63340;48.404;-4.506;2022-09-09T03:34:26;18.43;74.89
74811;DHT22;63340;48.404;-4.506;2022-09-09T03:36:52;18.44;74.81
74811;DHT22;63340;48.404;-4.506;2022-09-09T03:39:17;18.40;74.81
74811;DHT22;63340;48.404;-4.506;2022-09-09T03:41:43;18.40;74.81
74811;DHT22;63340;48.404;-4.506;2022-09-09T03:44:11;18.41;74.62
74811;DHT22;63340;48.404;-4.506;2022-09-09T03:46:37;18.41;74.60
74811;DHT22;63340;48.404;-4.506;2022-09-09T03:49:03;18.47;74.55
74811;DHT22;63340;48.404;-4.506;2022-09-09T03:51:29;18.50;74.39
74811;DHT22;63340;48.404;-4.506;2022-09-09T03:53:55;18.54;74.28
74811;DHT22;63340;48.404;-4.506;2022-09-09T03:56:22;18.48;74.22
74811;DHT22;63340;48.404;-4.506;2022-09-09T03:58:47;18.45;74.46
74811;DHT22;63340;48.404;-4.506;2022-09-09T04:01:13;18.45;74.53
74811;DHT22;63340;48.404;-4.506;2022-09-09T04:03:40;18.44;74.67
74811;DHT22;63340;48.404;-4.506;2022-09-09T04:06:07;18.41;74.69
74811;DHT22;63340;48.404;-4.506;2022-09-09T04:08:37;18.38;74.86
74811;DHT22;63340;48.404;-4.506;2022-09-09T04:11:04;18.45;74.79
74811;DHT22;63340;48.404;-4.506;2022-09-09T04:13:35;18.37;74.84
74811;DHT22;63340;48.404;-4.506;2022-09-09T04:16:03;18.41;74.78
74811;DHT22;63340;48.404;-4.506;2022-09-09T04:18:29;18.44;74.77
74811;DHT22;63340;48.404;-4.506;2022-09-09T04:20:55;18.44;74.63
74811;DHT22;63340;48.404;-4.506;2022-09-09T04:23:28;18.44;74.60
74811;DHT22;63340;48.404;-4.506;2022-09-09T04:25:58;18.51;74.45
74811;DHT22;63340;48.404;-4.506;2022-09-09T04:28:26;18.50;74.27
74811;DHT22;63340;48.404;-4.506;2022-09-09T04:30:52;18.48;74.41
74811;DHT22;63340;48.404;-4.506;2022-09-09T04:33:24;18.47;74.34
74811;DHT22;63340;48.404;-4.506;2022-09-09T04:35:53;18.47;74.42
74811;DHT22;63340;48.404;-4.506;2022-09-09T04:38:19;18.47;74.32
74811;DHT22;63340;48.404;-4.506;2022-09-09T04:40:48;18.52;74.18
74811;DHT22;63340;48.404;-4.506;2022-09-09T04:43:14;18.48;74.32
74811;DHT22;63340;48.404;-4.506;2022-09-09T04:45:41;18.47;74.30
74811;DHT22;63340;48.404;-4.506;2022-09-09T04:48:07;18.51;74.27
74811;DHT22;63340;48.404;-4.506;2022-09-09T04:50:33;18.52;74.26
74811;DHT22;63340;48.404;-4.506;2022-09-09T04:53:03;18.52;74.36
74811;DHT22;63340;48.404;-4.506;2022-09-09T04:55:30;18.48;74.44
74811;DHT22;63340;48.404;-4.506;2022-09-09T04:57:55;18.45;74.63
74811;DHT22;63340;48.404;-4.506;2022-09-09T05:00:21;18.45;74.69
74811;DHT22;63340;48.404;-4.506;2022-09-09T05:02:47;18.34;75.05
74811;DHT22;63340;48.404;-4.506;2022-09-09T05:05:13;18.37;75.10
74811;DHT22;63340;48.404;-4.506;2022-09-09T05:07:38;18.38;75.14
74811;DHT22;63340;48.404;-4.506;2022-09-09T05:10:04;18.36;75.24
74811;DHT22;63340;48.404;-4.506;2022-09-09T05:12:31;18.31;75.38
74811;DHT22;63340;48.404;-4.506;2022-09-09T05:14:57;18.34;75.36
74811;DHT22;63340;48.404;-4.506;2022-09-09T05:17:23;18.38;75.54
74811;DHT22;63340;48.404;-4.506;2022-09-09T05:19:48;18.41;75.39
74811;DHT22;63340;48.404;-4.506;2022-09-09T05:22:20;18.44;75.40
74811;DHT22;63340;48.404;-4.506;2022-09-09T05:24:46;18.40;75.38
74811;DHT22;63340;48.404;-4.506;2022-09-09T05:27:11;18.43;75.32
74811;DHT22;63340;48.404;-4.506;2022-09-09T05:29:37;18.47;75.53
74811;DHT22;63340;48.404;-4.506;2022-09-09T05:32:04;18.51;75.30
74811;DHT22;63340;48.404;-4.506;2022-09-09T05:34:29;18.55;75.28
74811;DHT22;63340;48.404;-4.506;2022-09-09T05:36:54;18.59;75.10
74811;DHT22;63340;48.404;-4.506;2022-09-09T05:39:20;18.58;75.17
74811;DHT22;63340;48.404;-4.506;2022-09-09T05:41:45;18.64;75.04
74811;DHT22;63340;48.404;-4.506;2022-09-09T05:44:11;18.65;75.16
74811;DHT22;63340;48.404;-4.506;2022-09-09T05:46:36;18.68;75.00
74811;DHT22;63340;48.404;-4.506;2022-09-09T05:49:02;18.71;75.05
74811;DHT22;63340;48.404;-4.506;2022-09-09T05:51:29;18.72;75.07
74811;DHT22;63340;48.404;-4.506;2022-09-09T05:53:57;18.75;74.96
74811;DHT22;63340;48.404;-4.506;2022-09-09T05:56:29;18.75;75.06
74811;DHT22;63340;48.404;-4.506;2022-09-09T05:58:56;18.72;75.06
74811;DHT22;63340;48.404;-4.506;2022-09-09T06:01:26;18.75;75.03
74811;DHT22;63340;48.404;-4.506;2022-09-09T06:03:52;18.67;75.35
74811;DHT22;63340;48.404;-4.506;2022-09-09T06:06:31;18.64;75.61
74811;DHT22;63340;48.404;-4.506;2022-09-09T06:09:02;18.72;75.38
74811;DHT22;63340;48.404;-4.506;2022-09-09T06:11:30;18.69;75.85
74811;DHT22;63340;48.404;-4.506;2022-09-09T06:13:59;18.68;75.84
74811;DHT22;63340;48.404;-4.506;2022-09-09T06:16:26;18.67;75.75
74811;DHT22;63340;48.404;-4.506;2022-09-09T06:18:54;18.71;75.70
74811;DHT22;63340;48.404;-4.506;2022-09-09T06:21:31;18.69;75.70
74811;DHT22;63340;48.404;-4.506;2022-09-09T06:23:58;18.75;75.53
74811;DHT22;63340;48.404;-4.506;2022-09-09T06:26:35;18.72;75.47
74811;DHT22;63340;48.404;-4.506;2022-09-09T06:29:01;18.68;75.59
74811;DHT22;63340;48.404;-4.506;2022-09-09T06:31:30;18.68;75.49
74811;DHT22;63340;48.404;-4.506;2022-09-09T06:33:56;18.71;75.27
74811;DHT22;63340;48.404;-4.506;2022-09-09T06:36:24;18.71;75.38
74811;DHT22;63340;48.404;-4.506;2022-09-09T06:38:50;18.72;75.21
74811;DHT22;63340;48.404;-4.506;2022-09-09T06:41:18;18.73;75.39
74811;DHT22;63340;48.404;-4.506;2022-09-09T06:43:45;18.81;75.20
74811;DHT22;63340;48.404;-4.506;2022-09-09T06:46:12;18.85;75.18
74811;DHT22;63340;48.404;-4.506;2022-09-09T06:48:39;18.91;74.91
74811;DHT22;63340;48.404;-4.506;2022-09-09T06:51:13;18.98;74.80
74811;DHT22;63340;48.404;-4.506;2022-09-09T06:53:40;19.05;74.80
74811;DHT22;63340;48.404;-4.506;2022-09-09T06:56:24;19.09;74.77
74811;DHT22;63340;48.404;-4.506;2022-09-09T06:58:51;19.10;74.65
74811;DHT22;63340;48.404;-4.506;2022-09-09T07:01:19;19.13;74.78
74811;DHT22;63340;48.404;-4.506;2022-09-09T07:03:47;19.15;74.86
74811;DHT22;63340;48.404;-4.506;2022-09-09T07:06:22;19.15;74.95
74811;DHT22;63340;48.404;-4.506;2022-09-09T07:08:53;19.16;74.91
74811;DHT22;63340;48.404;-4.506;2022-09-09T07:11:21;19.20;74.98
74811;DHT22;63340;48.404;-4.506;2022-09-09T07:13:47;19.26;74.97
74811;DHT22;63340;48.404;-4.506;2022-09-09T07:16:16;19.26;74.60
74811;DHT22;63340;48.404;-4.506;2022-09-09T07:18:42;19.28;74.60
74811;DHT22;63340;48.404;-4.506;2022-09-09T07:21:10;19.33;74.54
74811;DHT22;63340;48.404;-4.506;2022-09-09T07:23:37;19.36;74.65
74811;DHT22;63340;48.404;-4.506;2022-09-09T07:26:08;19.38;74.33
74811;DHT22;63340;48.404;-4.506;2022-09-09T07:28:34;19.40;74.30
74811;DHT22;63340;48.404;-4.506;2022-09-09T07:31:13;19.43;74.13
74811;DHT22;63340;48.404;-4.506;2022-09-09T07:33:42;19.46;74.10
74811;DHT22;63340;48.404;-4.506;2022-09-09T07:36:42;19.46;73.82
74811;DHT22;63340;48.404;-4.506;2022-09-09T07:39:10;19.51;73.90
74811;DHT22;63340;48.404;-4.506;2022-09-09T07:41:39;19.63;73.95
74811;DHT22;63340;48.404;-4.506;2022-09-09T07:44:24;19.79;74.05
74811;DHT22;63340;48.404;-4.506;2022-09-09T07:46:50;19.84;72.75
74811;DHT22;63340;48.404;-4.506;2022-09-09T07:49:16;19.89;73.28
74811;DHT22;63340;48.404;-4.506;2022-09-09T07:51:45;19.95;73.26
74811;DHT22;63340;48.404;-4.506;2022-09-09T07:54:13;19.99;73.22
74811;DHT22;63340;48.404;-4.506;2022-09-09T07:56:41;20.04;72.91
74811;DHT22;63340;48.404;-4.506;2022-09-09T07:59:07;20.05;72.28
74811;DHT22;63340;48.404;-4.506;2022-09-09T08:01:35;19.99;72.24
74811;DHT22;63340;48.404;-4.506;2022-09-09T08:04:05;19.96;72.38
74811;DHT22;63340;48.404;-4.506;2022-09-09T08:06:51;19.95;71.92
74811;DHT22;63340;48.404;-4.506;2022-09-09T08:09:18;20.05;72.23
74811;DHT22;63340;48.404;-4.506;2022-09-09T08:11:44;20.06;72.02
74811;DHT22;63340;48.404;-4.506;2022-09-09T08:14:12;20.02;71.72
74811;DHT22;63340;48.404;-4.506;2022-09-09T08:16:44;20.04;70.87
74811;DHT22;63340;48.404;-4.506;2022-09-09T08:19:13;20.06;71.00
74811;DHT22;63340;48.404;-4.506;2022-09-09T08:21:40;20.06;71.55
74811;DHT22;63340;48.404;-4.506;2022-09-09T08:24:08;20.11;71.75
74811;DHT22;63340;48.404;-4.506;2022-09-09T08:26:37;20.11;71.62
74811;DHT22;63340;48.404;-4.506;2022-09-09T08:29:08;20.06;71.67
74811;DHT22;63340;48.404;-4.506;2022-09-09T08:31:40;20.06;71.87
74811;DHT22;63340;48.404;-4.506;2022-09-09T08:34:08;20.06;71.85
74811;DHT22;63340;48.404;-4.506;2022-09-09T08:36:37;19.98;72.01
74811;DHT22;63340;48.404;-4.506;2022-09-09T08:39:07;20.04;72.43
74811;DHT22;63340;48.404;-4.506;2022-09-09T08:55:32;20.63;70.03
74811;DHT22;63340;48.404;-4.506;2022-09-09T08:58:09;20.84;70.27
74811;DHT22;63340;48.404;-4.506;2022-09-09T09:03:22;20.94;68.04
74811;DHT22;63340;48.404;-4.506;2022-09-09T09:11:46;20.66;69.41
74811;DHT22;63340;48.404;-4.506;2022-09-09T09:14:22;20.69;69.98
74811;DHT22;63340;48.404;-4.506;2022-09-09T09:16:54;20.56;69.90
74811;DHT22;63340;48.404;-4.506;2022-09-09T09:19:21;20.46;70.64
74811;DHT22;63340;48.404;-4.506;2022-09-09T09:25:16;20.51;71.08
74811;DHT22;63340;48.404;-4.506;2022-09-09T09:28:16;20.43;70.97
74811;DHT22;63340;48.404;-4.506;2022-09-09T09:33:21;20.43;71.46
74811;DHT22;63340;48.404;-4.506;2022-09-09T09:35:52;20.49;71.13
74811;DHT22;63340;48.404;-4.506;2022-09-09T09:38:24;20.57;71.21
74811;DHT22;63340;48.404;-4.506;2022-09-09T09:40:58;20.57;70.57
74811;DHT22;63340;48.404;-4.506;2022-09-09T09:43:28;20.59;70.72
74811;DHT22;63340;48.404;-4.506;2022-09-09T09:45:54;20.54;70.62
74811;DHT22;63340;48.404;-4.506;2022-09-09T09:48:20;20.60;70.42
74811;DHT22;63340;48.404;-4.506;2022-09-09T09:50:52;20.61;70.57
74811;DHT22;63340;48.404;-4.506;2022-09-09T09:53:29;20.77;69.72
74811;DHT22;63340;48.404;-4.506;2022-09-09T09:56:00;20.91;69.71
74811;DHT22;63340;48.404;-4.506;2022-09-09T09:58:50;20.90;68.70
74811;DHT22;63340;48.404;-4.506;2022-09-09T10:01:30;20.95;67.34
74811;DHT22;63340;48.404;-4.506;2022-09-09T10:04:14;20.90;67.08
74811;DHT22;63340;48.404;-4.506;2022-09-09T10:06:41;20.90;67.71
74811;DHT22;63340;48.404;-4.506;2022-09-09T10:09:25;20.91;68.37
74811;DHT22;63340;48.404;-4.506;2022-09-09T10:24:02;20.70;68.57
74811;DHT22;63340;48.404;-4.506;2022-09-09T10:26:44;20.73;67.99
74811;DHT22;63340;48.404;-4.506;2022-09-09T10:31:49;20.99;67.80
74811;DHT22;63340;48.404;-4.506;2022-09-09T10:34:55;21.14;67.27
74811;DHT22;63340;48.404;-4.506;2022-09-09T10:40:26;21.31;65.78
74811;DHT22;63340;48.404;-4.506;2022-09-09T10:43:01;21.28;66.16
74811;DHT22;63340;48.404;-4.506;2022-09-09T10:46:06;21.15;68.09
74811;DHT22;63340;48.404;-4.506;2022-09-09T10:51:40;20.84;68.77
74811;DHT22;63340;48.404;-4.506;2022-09-09T10:54:35;20.79;70.39
74811;DHT22;63340;48.404;-4.506;2022-09-09T10:57:24;20.80;70.30
74811;DHT22;63340;48.404;-4.506;2022-09-09T10:59:53;20.83;69.46
74811;DHT22;63340;48.404;-4.506;2022-09-09T11:04:55;20.92;69.37
74811;DHT22;63340;48.404;-4.506;2022-09-09T11:10:06;21.11;70.46
74811;DHT22;63340;48.404;-4.506;2022-09-09T11:12:36;20.99;68.99
74811;DHT22;63340;48.404;-4.506;2022-09-09T11:15:14;20.88;68.85
74811;DHT22;63340;48.404;-4.506;2022-09-09T11:17:49;20.73;68.13
74811;DHT22;63340;48.404;-4.506;2022-09-09T11:20:15;20.56;68.95
74811;DHT22;63340;48.404;-4.506;2022-09-09T11:22:52;20.59;70.28
74811;DHT22;63340;48.404;-4.506;2022-09-09T11:25:31;20.59;69.77
74811;DHT22;63340;48.404;-4.506;2022-09-09T11:28:21;20.60;70.49
74811;DHT22;63340;48.404;-4.506;2022-09-09T11:44:37;20.97;66.70
74811;DHT22;63340;48.404;-4.506;2022-09-09T11:47:03;21.02;65.55
74811;DHT22;63340;48.404;-4.506;2022-09-09T11:49:42;20.94;65.74
74811;DHT22;63340;48.404;-4.506;2022-09-09T11:52:41;20.88;65.38
74811;DHT22;63340;48.404;-4.506;2022-09-09T11:55:11;20.95;64.96
74811;DHT22;63340;48.404;-4.506;2022-09-09T11:57:38;20.80;63.96
74811;DHT22;63340;48.404;-4.506;2022-09-09T12:00:04;20.77;64.42
74811;DHT22;63340;48.404;-4.506;2022-09-09T12:02:30;20.77;65.42
74811;DHT22;63340;48.404;-4.506;2022-09-09T12:05:06;20.77;65.14
74811;DHT22;63340;48.404;-4.506;2022-09-09T12:07:42;20.81;64.27
74811;DHT22;63340;48.404;-4.506;2022-09-09T12:10:33;20.84;62.57
74811;DHT22;63340;48.404;-4.506;2022-09-09T12:13:18;20.99;64.29
74811;DHT22;63340;48.404;-4.506;2022-09-09T12:15:55;21.19;63.45
74811;DHT22;63340;48.404;-4.506;2022-09-09T12:18:31;21.28;62.90
74811;DHT22;63340;48.404;-4.506;2022-09-09T12:21:06;21.22;62.05
74811;DHT22;63340;48.404;-4.506;2022-09-09T12:23:47;21.25;62.67
74811;DHT22;63340;48.404;-4.506;2022-09-09T12:36:53;21.17;63.91
74811;DHT22;63340;48.404;-4.506;2022-09-09T12:39:36;21.15;65.05
74811;DHT22;63340;48.404;-4.506;2022-09-09T12:42:03;21.35;64.73
74811;DHT22;63340;48.404;-4.506;2022-09-09T12:44:29;21.45;63.72
74811;DHT22;63340;48.404;-4.506;2022-09-09T12:46:57;21.56;63.51
74811;DHT22;63340;48.404;-4.506;2022-09-09T12:49:37;21.59;62.24
74811;DHT22;63340;48.404;-4.506;2022-09-09T12:52:14;21.60;61.79
74811;DHT22;63340;48.404;-4.506;2022-09-09T12:54:45;21.60;61.49
74811;DHT22;63340;48.404;-4.506;2022-09-09T12:57:12;21.56;61.69
74811;DHT22;63340;48.404;-4.506;2022-09-09T12:59:43;21.59;63.12
74811;DHT22;63340;48.404;-4.506;2022-09-09T13:02:31;21.65;62.43
74811;DHT22;63340;48.404;-4.506;2022-09-09T13:05:09;21.42;62.01
74811;DHT22;63340;48.404;-4.506;2022-09-09T13:07:38;21.65;62.87
74811;DHT22;63340;48.404;-4.506;2022-09-09T13:10:04;21.75;61.53
74811;DHT22;63340;48.404;-4.506;2022-09-09T13:12:30;21.65;61.96
74811;DHT22;63340;48.404;-4.506;2022-09-09T13:14:56;21.76;61.72
74811;DHT22;63340;48.404;-4.506;2022-09-09T13:17:24;21.73;61.43
74811;DHT22;63340;48.404;-4.506;2022-09-09T13:19:52;21.83;60.93
74811;DHT22;63340;48.404;-4.506;2022-09-09T13:22:35;21.96;61.29
74811;DHT22;63340;48.404;-4.506;2022-09-09T13:25:16;22.08;60.16
74811;DHT22;63340;48.404;-4.506;2022-09-09T13:27:55;22.10;59.25
74811;DHT22;63340;48.404;-4.506;2022-09-09T13:30:28;22.21;59.19
74811;DHT22;63340;48.404;-4.506;2022-09-09T13:35:57;22.31;59.29
74811;DHT22;63340;48.404;-4.506;2022-09-09T13:38:24;22.44;60.09
74811;DHT22;63340;48.404;-4.506;2022-09-09T13:41:09;22.42;58.30
74811;DHT22;63340;48.404;-4.506;2022-09-09T13:43:42;22.52;59.04
74811;DHT22;63340;48.404;-4.506;2022-09-09T13:49:22;22.27;59.38
74811;DHT22;63340;48.404;-4.506;2022-09-09T13:51:50;22.18;58.58
74811;DHT22;63340;48.404;-4.506;2022-09-09T13:54:17;22.14;59.27
74811;DHT22;63340;48.404;-4.506;2022-09-09T13:56:44;22.21;60.00
74811;DHT22;63340;48.404;-4.506;2022-09-09T13:59:17;22.21;59.80
74811;DHT22;63340;48.404;-4.506;2022-09-09T14:01:45;22.28;59.42
74811;DHT22;63340;48.404;-4.506;2022-09-09T14:04:11;22.22;59.87
74811;DHT22;63340;48.404;-4.506;2022-09-09T14:06:37;21.98;60.20
74811;DHT22;63340;48.404;-4.506;2022-09-09T14:09:06;22.00;60.58
74811;DHT22;63340;48.404;-4.506;2022-09-09T14:11:31;22.01;60.26
74811;DHT22;63340;48.404;-4.506;2022-09-09T14:13:56;22.03;60.43
74811;DHT22;63340;48.404;-4.506;2022-09-09T14:16:22;21.89;61.15
74811;DHT22;63340;48.404;-4.506;2022-09-09T14:18:47;21.82;61.29
74811;DHT22;63340;48.404;-4.506;2022-09-09T14:21:13;21.73;61.40
74811;DHT22;63340;48.404;-4.506;2022-09-09T14:23:39;21.79;61.26
74811;DHT22;63340;48.404;-4.506;2022-09-09T14:26:06;21.79;60.77
74811;DHT22;63340;48.404;-4.506;2022-09-09T14:28:31;21.87;61.16
74811;DHT22;63340;48.404;-4.506;2022-09-09T14:31:02;21.96;61.34
74811;DHT22;63340;48.404;-4.506;2022-09-09T14:33:29;21.83;61.66
74811;DHT22;63340;48.404;-4.506;2022-09-09T14:35:59;21.86;62.75
74811;DHT22;63340;48.404;-4.506;2022-09-09T14:38:28;21.86;62.73
74811;DHT22;63340;48.404;-4.506;2022-09-09T14:40:54;21.90;62.50
74811;DHT22;63340;48.404;-4.506;2022-09-09T14:43:19;21.93;61.52
74811;DHT22;63340;48.404;-4.506;2022-09-09T14:45:45;22.00;61.54
74811;DHT22;63340;48.404;-4.506;2022-09-09T14:48:13;21.98;60.81
74811;DHT22;63340;48.404;-4.506;2022-09-09T14:50:39;22.05;60.82
74811;DHT22;63340;48.404;-4.506;2022-09-09T14:53:05;22.08;61.12
74811;DHT22;63340;48.404;-4.506;2022-09-09T14:55:31;22.01;60.71
74811;DHT22;63340;48.404;-4.506;2022-09-09T14:57:56;22.07;61.26
74811;DHT22;63340;48.404;-4.506;2022-09-09T15:00:22;22.04;60.54
74811;DHT22;63340;48.404;-4.506;2022-09-09T15:02:47;22.15;60.21
74811;DHT22;63340;48.404;-4.506;2022-09-09T15:05:13;22.22;59.94
74811;DHT22;63340;48.404;-4.506;2022-09-09T15:07:40;22.18;59.72
74811;DHT22;63340;48.404;-4.506;2022-09-09T15:10:05;22.17;59.20
74811;DHT22;63340;48.404;-4.506;2022-09-09T15:12:31;21.98;59.41
74811;DHT22;63340;48.404;-4.506;2022-09-09T15:14:58;22.00;60.96
74811;DHT22;63340;48.404;-4.506;2022-09-09T15:17:23;21.87;60.62
74811;DHT22;63340;48.404;-4.506;2022-09-09T15:19:50;21.90;61.12
74811;DHT22;63340;48.404;-4.506;2022-09-09T15:22:16;21.97;61.21
74811;DHT22;63340;48.404;-4.506;2022-09-09T15:24:41;22.00;61.23
74811;DHT22;63340;48.404;-4.506;2022-09-09T15:27:07;21.90;61.63
74811;DHT22;63340;48.404;-4.506;2022-09-09T15:29:32;21.84;61.68
74811;DHT22;63340;48.404;-4.506;2022-09-09T15:31:58;21.83;61.62
74811;DHT22;63340;48.404;-4.506;2022-09-09T15:34:23;21.82;61.23
74811;DHT22;63340;48.404;-4.506;2022-09-09T15:36:48;21.79;61.26
74811;DHT22;63340;48.404;-4.506;2022-09-09T15:39:16;21.73;61.13
74811;DHT22;63340;48.404;-4.506;2022-09-09T15:41:43;21.82;61.14
74811;DHT22;63340;48.404;-4.506;2022-09-09T15:44:11;21.90;61.06
74811;DHT22;63340;48.404;-4.506;2022-09-09T15:49:08;21.97;61.16
74811;DHT22;63340;48.404;-4.506;2022-09-09T15:51:34;21.90;61.31
74811;DHT22;63340;48.404;-4.506;2022-09-09T15:54:00;21.82;61.69
74811;DHT22;63340;48.404;-4.506;2022-09-09T15:56:27;21.77;61.92
74811;DHT22;63340;48.404;-4.506;2022-09-09T15:58:55;21.73;62.17
74811;DHT22;63340;48.404;-4.506;2022-09-09T16:01:20;21.67;62.68
74811;DHT22;63340;48.404;-4.506;2022-09-09T16:03:45;21.59;62.69
74811;DHT22;63340;48.404;-4.506;2022-09-09T16:06:15;21.57;62.72
74811;DHT22;63340;48.404;-4.506;2022-09-09T16:08:43;21.42;63.07
74811;DHT22;63340;48.404;-4.506;2022-09-09T16:11:11;21.41;63.29
74811;DHT22;63340;48.404;-4.506;2022-09-09T16:13:39;21.45;63.22
74811;DHT22;63340;48.404;-4.506;2022-09-09T16:16:06;21.42;63.50
74811;DHT22;63340;48.404;-4.506;2022-09-09T16:18:36;21.39;63.27
74811;DHT22;63340;48.404;-4.506;2022-09-09T16:21:02;21.39;63.17
74811;DHT22;63340;48.404;-4.506;2022-09-09T16:23:28;21.41;62.45
74811;DHT22;63340;48.404;-4.506;2022-09-09T16:25:54;21.43;62.49
74811;DHT22;63340;48.404;-4.506;2022-09-09T16:28:20;21.41;62.54
74811;DHT22;63340;48.404;-4.506;2022-09-09T16:30:46;21.45;62.50
74811;DHT22;63340;48.404;-4.506;2022-09-09T16:33:11;21.50;62.01
74811;DHT22;63340;48.404;-4.506;2022-09-09T16:35:39;21.55;62.36
74811;DHT22;63340;48.404;-4.506;2022-09-09T16:38:05;21.53;62.26
74811;DHT22;63340;48.404;-4.506;2022-09-09T16:40:34;21.65;62.35
74811;DHT22;63340;48.404;-4.506;2022-09-09T16:43:00;21.67;62.39
74811;DHT22;63340;48.404;-4.506;2022-09-09T16:45:26;21.73;62.69
74811;DHT22;63340;48.404;-4.506;2022-09-09T16:47:51;21.86;62.22
74811;DHT22;63340;48.404;-4.506;2022-09-09T16:50:17;22.01;61.96
74811;DHT22;63340;48.404;-4.506;2022-09-09T16:52:42;22.14;61.84
74811;DHT22;63340;48.404;-4.506;2022-09-09T16:55:08;22.05;61.83
74811;DHT22;63340;48.404;-4.506;2022-09-09T16:57:34;22.10;61.66
74811;DHT22;63340;48.404;-4.506;2022-09-09T17:00:00;22.20;61.84
74811;DHT22;63340;48.404;-4.506;2022-09-09T17:02:26;22.38;61.72
74811;DHT22;63340;48.404;-4.506;2022-09-09T17:04:51;22.61;61.42
74811;DHT22;63340;48.404;-4.506;2022-09-09T17:07:17;23.04;59.82
74811;DHT22;63340;48.404;-4.506;2022-09-09T17:09:44;23.76;58.08
74811;DHT22;63340;48.404;-4.506;2022-09-09T17:12:10;24.44;56.46
74811;DHT22;63340;48.404;-4.506;2022-09-09T17:14:37;24.60;52.88
74811;DHT22;63340;48.404;-4.506;2022-09-09T17:17:03;24.46;54.45
74811;DHT22;63340;48.404;-4.506;2022-09-09T17:19:30;24.22;53.83
74811;DHT22;63340;48.404;-4.506;2022-09-09T17:21:55;23.89;54.19
74811;DHT22;63340;48.404;-4.506;2022-09-09T17:24:24;23.59;55.15
74811;DHT22;63340;48.404;-4.506;2022-09-09T17:26:51;23.50;56.19
74811;DHT22;63340;48.404;-4.506;2022-09-09T17:29:17;23.36;56.51
74811;DHT22;63340;48.404;-4.506;2022-09-09T17:31:43;23.23;56.63
74811;DHT22;63340;48.404;-4.506;2022-09-09T17:34:08;23.07;57.56
74811;DHT22;63340;48.404;-4.506;2022-09-09T17:36:34;22.92;58.17
74811;DHT22;63340;48.404;-4.506;2022-09-09T17:39:04;22.85;58.69
74811;DHT22;63340;48.404;-4.506;2022-09-09T17:41:35;22.77;58.88
74811;DHT22;63340;48.404;-4.506;2022-09-09T17:44:01;22.66;58.86
74811;DHT22;63340;48.404;-4.506;2022-09-09T17:46:29;22.55;59.36
74811;DHT22;63340;48.404;-4.506;2022-09-09T17:48:59;22.35;59.34